sensor_id;sensor_type;location;lat;lon;timestamp;temperature;humidity
19928;DHT22;10126;50.876;4.470;2023-04-06T00:01:41;8.50;99.90
19928;DHT22;10126;50.876;4.470;2023-04-06T00:03:41;8.50;99.90
19928;DHT22;10126;50.876;4.470;2023-04-06T00:05:42;8.70;99.90
19928;DHT22;10126;50.876;4.470;2023-04-06T00:07:43;8.40;99.90
19928;DHT22;10126;50.876;4.470;2023-04-06T00:09:43;8.40;99.90
19928;DHT22;10126;50.876;4.470;2023-04-06T00:11:45;8.40;99.90
19928;DHT22;10126;50.876;4.470;2023-04-06T00:13:48;8.40;99.90
19928;DHT22;10126;50.876;4.470;2023-04-06T00:15:49;8.50;99.90
19928;DHT22;10126;50.876;4.470;2023-04-06T00:17:50;8.50;99.90
19928;DHT22;10126;50.876;4.470;2023-04-06T00:19:51;8.40;99.90
19928;DHT22;10126;50.876;4.470;2023-04-06T00:21:51;8.40;99.90
19928;DHT22;10126;50.876;4.470;2023-04-06T00:23:52;8.40;99.90
19928;DHT22;10126;50.876;4.470;2023-04-06T00:25:53;8.50;99.90
19928;DHT22;10126;50.876;4.470;2023-04-06T00:27:53;8.50;99.90
19928;DHT22;10126;50.876;4.470;2023-04-06T00:29:55;8.60;99.90
19928;DHT22;10126;50.876;4.470;2023-04-06T00:31:55;8.40;99.90
19928;DHT22;10126;50.876;4.470;2023-04-06T00:33:57;8.40;99.90
19928;DHT22;10126;50.876;4.470;2023-04-06T00:35:58;8.50;99.90
19928;DHT22;10126;50.876;4.470;2023-04-06T00:37:58;8.50;99.90
19928;DHT22;10126;50.876;4.470;2023-04-06T00:39:59;8.50;99.90
19928;DHT22;10126;50.876;4.470;2023-04-06T00:42:00;8.40;99.90
19928;DHT22;10126;50.876;4.470;2023-04-06T00:44:05;8.40;99.90
19928;DHT22;10126;50.876;4.470;2023-04-06T00:46:05;8.50;99.90
19928;DHT22;10126;50.876;4.470;2023-04-06T00:48:06;8.50;99.90
19928;DHT22;10126;50.876;4.470;2023-04-06T00:50:07;8.50;99.90
19928;DHT22;10126;50.876;4.470;2023-04-06T00:52:08;8.60;99.90
19928;DHT22;10126;50.876;4.470;2023-04-06T00:54:09;8.50;99.90
19928;DHT22;10126;50.876;4.470;2023-04-06T00:56:10;8.50;99.90
19928;DHT22;10126;50.876;4.470;2023-04-06T00:58:10;8.50;99.90
19928;DHT22;10126;50.876;4.470;2023-04-06T01:00:11;8.50;99.90
19928;DHT22;10126;50.876;4.470;2023-04-06T01:02:13;8.50;99.90
19928;DHT22;10126;50.876;4.470;2023-04-06T01:04:13;8.50;99.90
19928;DHT22;10126;50.876;4.470;2023-04-06T01:06:14;8.60;99.90
19928;DHT22;10126;50.876;4.470;2023-04-06T01:08:15;8.60;99.90
19928;DHT22;10126;50.876;4.470;2023-04-06T01:10:26;8.70;99.90
19928;DHT22;10126;50.876;4.470;2023-04-06T01:12:27;8.70;99.90
19928;DHT22;10126;50.876;4.470;2023-04-06T01:14:28;8.70;99.90
19928;DHT22;10126;50.876;4.470;2023-04-06T01:16:29;8.70;99.90
19928;DHT22;10126;50.876;4.470;2023-04-06T01:18:30;8.70;99.90
19928;DHT22;10126;50.876;4.470;2023-04-06T01:20:30;8.60;99.90
19928;DHT22;10126;50.876;4.470;2023-04-06T01:22:31;8.60;99.90
19928;DHT22;10126;50.876;4.470;2023-04-06T01:24:32;8.60;99.90
19928;DHT22;10126;50.876;4.470;2023-04-06T01:26:34;8.60;99.90
19928;DHT22;10126;50.876;4.470;2023-04-06T01:28:35;8.60;99.90
19928;DHT22;10126;50.876;4.470;2023-04-06T01:30:37;8.70;99.90
19928;DHT22;10126;50.876;4.470;2023-04-06T01:32:38;8.70;99.90
19928;DHT22;10126;50.876;4.470;2023-04-06T01:34:38;8.80;99.90
19928;DHT22;10126;50.876;4.470;2023-04-06T01:36:39;8.90;99.90
19928;DHT22;10126;50.876;4.470;2023-04-06T01:38:40;8.80;99.90
19928;DHT22;10126;50.876;4.470;2023-04-06T01:40:41;8.90;99.90
19928;DHT22;10126;50.876;4.470;2023-04-06T01:42:42;8.90;99.90
19928;DHT22;10126;50.876;4.470;2023-04-06T01:44:43;8.90;99.90
19928;DHT22;10126;50.876;4.470;2023-04-06T01:46:43;8.80;99.90
19928;DHT22;10126;50.876;4.470;2023-04-06T01:48:44;8.80;99.90
19928;DHT22;10126;50.876;4.470;2023-04-06T01:50:45;8.70;99.90
19928;DHT22;10126;50.876;4.470;2023-04-06T01:52:46;8.50;99.90
19928;DHT22;10126;50.876;4.470;2023-04-06T01:54:46;8.40;99.90
19928;DHT22;10126;50.876;4.470;2023-04-06T01:56:47;8.40;99.90
19928;DHT22;10126;50.876;4.470;2023-04-06T01:58:50;8.30;99.90
19928;DHT22;10126;50.876;4.470;2023-04-06T02:00:51;8.30;99.90
19928;DHT22;10126;50.876;4.470;2023-04-06T02:02:51;8.20;99.90
19928;DHT22;10126;50.876;4.470;2023-04-06T02:04:52;8.30;99.90
19928;DHT22;10126;50.876;4.470;2023-04-06T02:06:52;8.30;99.90
19928;DHT22;10126;50.876;4.470;2023-04-06T02:08:53;8.40;99.90
19928;DHT22;10126;50.876;4.470;2023-04-06T02:10:54;8.40;99.90
19928;DHT22;10126;50.876;4.470;2023-04-06T02:12:54;8.30;99.90
19928;DHT22;10126;50.876;4.470;2023-04-06T02:14:55;8.30;99.90
19928;DHT22;10126;50.876;4.470;2023-04-06T02:16:56;8.30;99.90
19928;DHT22;10126;50.876;4.470;2023-04-06T02:18:57;8.20;99.90
19928;DHT22;10126;50.876;4.470;2023-04-06T02:20:57;8.10;99.90
19928;DHT22;10126;50.876;4.470;2023-04-06T02:22:59;7.90;99.90
19928;DHT22;10126;50.876;4.470;2023-04-06T02:25:01;7.90;99.90
19928;DHT22;10126;50.876;4.470;2023-04-06T02:27:02;7.80;99.90
19928;DHT22;10126;50.876;4.470;2023-04-06T02:29:02;7.80;99.90
19928;DHT22;10126;50.876;4.470;2023-04-06T02:31:03;7.60;99.90
19928;DHT22;10126;50.876;4.470;2023-04-06T02:33:04;7.60;99.90
19928;DHT22;10126;50.876;4.470;2023-04-06T02:35:05;7.70;99.90
19928;DHT22;10126;50.876;4.470;2023-04-06T02:37:05;7.70;99.90
19928;DHT22;10126;50.876;4.470;2023-04-06T02:39:06;7.70;99.90
19928;DHT22;10126;50.876;4.470;2023-04-06T02:41:07;7.70;99.90
19928;DHT22;10126;50.876;4.470;2023-04-06T02:43:07;7.70;99.90
19928;DHT22;10126;50.876;4.470;2023-04-06T02:45:08;7.70;99.90
19928;DHT22;10126;50.876;4.470;2023-04-06T02:47:09;7.70;99.90
19928;DHT22;10126;50.876;4.470;2023-04-06T02:49:10;7.70;99.90
19928;DHT22;10126;50.876;4.470;2023-04-06T02:51:10;7.90;99.90
19928;DHT22;10126;50.876;4.470;2023-04-06T02:53:11;7.80;99.90
19928;DHT22;10126;50.876;4.470;2023-04-06T02:55:12;7.80;99.90
19928;DHT22;10126;50.876;4.470;2023-04-06T02:57:12;7.90;99.90
19928;DHT22;10126;50.876;4.470;2023-04-06T02:59:13;7.80;99.90
19928;DHT22;10126;50.876;4.470;2023-04-06T03:01:14;7.80;99.90
19928;DHT22;10126;50.876;4.470;2023-04-06T03:03:15;7.70;99.90
19928;DHT22;10126;50.876;4.470;2023-04-06T03:05:15;7.70;99.90
19928;DHT22;10126;50.876;4.470;2023-04-06T03:07:16;7.80;99.90
19928;DHT22;10126;50.876;4.470;2023-04-06T03:09:17;7.80;99.90
19928;DHT22;10126;50.876;4.470;2023-04-06T03:11:17;7.90;99.90
19928;DHT22;10126;50.876;4.470;2023-04-06T03:13:18;7.80;99.90
19928;DHT22;10126;50.876;4.470;2023-04-06T03:15:21;7.90;99.90
19928;DHT22;10126;50.876;4.470;2023-04-06T03:17:22;8.00;99.90
19928;DHT22;10126;50.876;4.470;2023-04-06T03:19:23;7.90;99.90
19928;DHT22;10126;50.876;4.470;2023-04-06T03:21:23;7.90;99.90
19928;DHT22;10126;50.876;4.470;2023-04-06T03:23:24;7.80;99.90
19928;DHT22;10126;50.876;4.470;2023-04-06T03:25:25;7.60;99.90
19928;DHT22;10126;50.876;4.470;2023-04-06T03:27:25;7.60;99.90
19928;DHT22;10126;50.876;4.470;2023-04-06T03:29:26;7.60;99.90
19928;DHT22;10126;50.876;4.470;2023-04-06T03:31:27;7.60;99.90
19928;DHT22;10126;50.876;4.470;2023-04-06T03:33:28;7.50;99.90
19928;DHT22;10126;50.876;4.470;2023-04-06T03:35:28;7.40;99.90
19928;DHT22;10126;50.876;4.470;2023-04-06T03:37:29;7.40;99.90
19928;DHT22;10126;50.876;4.470;2023-04-06T03:39:30;7.40;99.90
19928;DHT22;10126;50.876;4.470;2023-04-06T03:41:30;7.50;99.90
19928;DHT22;10126;50.876;4.470;2023-04-06T03:43:31;7.50;99.90
19928;DHT22;10126;50.876;4.470;2023-04-06T03:45:32;7.60;99.90
19928;DHT22;10126;50.876;4.470;2023-04-06T03:47:33;7.50;99.90
19928;DHT22;10126;50.876;4.470;2023-04-06T03:49:34;7.50;99.90
19928;DHT22;10126;50.876;4.470;2023-04-06T03:51:35;7.70;99.90
19928;DHT22;10126;50.876;4.470;2023-04-06T03:53:36;7.60;99.90
19928;DHT22;10126;50.876;4.470;2023-04-06T03:55:37;7.60;99.90
19928;DHT22;10126;50.876;4.470;2023-04-06T03:57:38;7.50;99.90
19928;DHT22;10126;50.876;4.470;2023-04-06T03:59:38;7.60;99.90
19928;DHT22;10126;50.876;4.470;2023-04-06T04:01:39;7.40;99.90
19928;DHT22;10126;50.876;4.470;2023-04-06T04:03:40;7.50;99.90
19928;DHT22;10126;50.876;4.470;2023-04-06T04:05:41;7.50;99.90
19928;DHT22;10126;50.876;4.470;2023-04-06T04:07:42;7.40;99.90
19928;DHT22;10126;50.876;4.470;2023-04-06T04:09:42;7.50;99.90
19928;DHT22;10126;50.876;4.470;2023-04-06T04:11:43;7.50;99.90
19928;DHT22;10126;50.876;4.470;2023-04-06T04:13:44;7.50;99.90
19928;DHT22;10126;50.876;4.470;2023-04-06T04:15:44;7.50;99.90
19928;DHT22;10126;50.876;4.470;2023-04-06T04:17:45;7.60;99.90
19928;DHT22;10126;50.876;4.470;2023-04-06T04:19:49;7.60;99.90
19928;DHT22;10126;50.876;4.470;2023-04-06T04:21:49;7.60;99.90
19928;DHT22;10126;50.876;4.470;2023-04-06T04:23:52;7.60;99.90
19928;DHT22;10126;50.876;4.470;2023-04-06T04:25:53;7.50;99.90
19928;DHT22;10126;50.876;4.470;2023-04-06T04:27:54;7.50;99.90
19928;DHT22;10126;50.876;4.470;2023-04-06T04:29:55;7.50;99.90
19928;DHT22;10126;50.876;4.470;2023-04-06T04:31:55;7.60;99.90
19928;DHT22;10126;50.876;4.470;2023-04-06T04:33:57;7.60;99.90
19928;DHT22;10126;50.876;4.470;2023-04-06T04:35:57;7.60;99.90
19928;DHT22;10126;50.876;4.470;2023-04-06T04:37:58;7.80;99.90
19928;DHT22;10126;50.876;4.470;2023-04-06T04:39:59;7.90;99.90
19928;DHT22;10126;50.876;4.470;2023-04-06T04:41:59;7.80;99.90
19928;DHT22;10126;50.876;4.470;2023-04-06T04:44:00;7.70;99.90
19928;DHT22;10126;50.876;4.470;2023-04-06T04:46:01;7.70;99.90
19928;DHT22;10126;50.876;4.470;2023-04-06T04:48:01;7.80;99.90
19928;DHT22;10126;50.876;4.470;2023-04-06T04:50:02;7.70;99.90
19928;DHT22;10126;50.876;4.470;2023-04-06T04:52:03;7.70;99.90
19928;DHT22;10126;50.876;4.470;2023-04-06T04:54:04;7.80;99.90
19928;DHT22;10126;50.876;4.470;2023-04-06T04:56:04;7.80;99.90
19928;DHT22;10126;50.876;4.470;2023-04-06T04:58:05;7.80;99.90
19928;DHT22;10126;50.876;4.470;2023-04-06T05:00:06;7.90;99.90
19928;DHT22;10126;50.876;4.470;2023-04-06T05:02:07;7.90;99.90
19928;DHT22;10126;50.876;4.470;2023-04-06T05:04:08;7.80;99.90
19928;DHT22;10126;50.876;4.470;2023-04-06T05:06:08;7.80;99.90
19928;DHT22;10126;50.876;4.470;2023-04-06T05:08:09;7.90;99.90
19928;DHT22;10126;50.876;4.470;2023-04-06T05:10:10;8.00;99.90
19928;DHT22;10126;50.876;4.470;2023-04-06T05:12:11;8.00;99.90
19928;DHT22;10126;50.876;4.470;2023-04-06T05:14:11;8.10;99.90
19928;DHT22;10126;50.876;4.470;2023-04-06T05:16:12;8.10;99.90
19928;DHT22;10126;50.876;4.470;2023-04-06T05:18:13;8.30;99.90
19928;DHT22;10126;50.876;4.470;2023-04-06T05:20:14;8.40;99.90
19928;DHT22;10126;50.876;4.470;2023-04-06T05:22:15;8.40;99.90
19928;DHT22;10126;50.876;4.470;2023-04-06T05:24:17;8.50;99.90
19928;DHT22;10126;50.876;4.470;2023-04-06T05:26:18;8.50;99.90
19928;DHT22;10126;50.876;4.470;2023-04-06T05:28:19;8.30;99.90
19928;DHT22;10126;50.876;4.470;2023-04-06T05:30:20;8.20;99.90
19928;DHT22;10126;50.876;4.470;2023-04-06T05:32:21;8.30;99.90
19928;DHT22;10126;50.876;4.470;2023-04-06T05:34:25;8.20;99.90
19928;DHT22;10126;50.876;4.470;2023-04-06T05:36:25;8.40;99.90
19928;DHT22;10126;50.876;4.470;2023-04-06T05:38:26;8.40;99.90
19928;DHT22;10126;50.876;4.470;2023-04-06T05:40:27;8.20;99.90
19928;DHT22;10126;50.876;4.470;2023-04-06T05:42:41;8.40;99.90
19928;DHT22;10126;50.876;4.470;2023-04-06T05:44:45;8.50;99.90
19928;DHT22;10126;50.876;4.470;2023-04-06T05:46:45;8.60;99.90
19928;DHT22;10126;50.876;4.470;2023-04-06T05:48:46;8.70;99.90
19928;DHT22;10126;50.876;4.470;2023-04-06T05:50:49;8.80;99.90
19928;DHT22;10126;50.876;4.470;2023-04-06T05:52:50;8.90;99.90
19928;DHT22;10126;50.876;4.470;2023-04-06T05:54:52;9.00;99.90
19928;DHT22;10126;50.876;4.470;2023-04-06T05:56:52;9.20;99.90
19928;DHT22;10126;50.876;4.470;2023-04-06T05:58:53;9.30;99.90
19928;DHT22;10126;50.876;4.470;2023-04-06T06:01:00;9.40;99.90
19928;DHT22;10126;50.876;4.470;2023-04-06T06:13:41;9.30;99.90
19928;DHT22;10126;50.876;4.470;2023-04-06T06:15:44;9.40;99.90
19928;DHT22;10126;50.876;4.470;2023-04-06T06:17:45;9.70;99.90
19928;DHT22;10126;50.876;4.470;2023-04-06T06:19:46;9.90;99.90
19928;DHT22;10126;50.876;4.470;2023-04-06T06:21:47;10.00;99.90
19928;DHT22;10126;50.876;4.470;2023-04-06T06:23:47;10.00;99.90
19928;DHT22;10126;50.876;4.470;2023-04-06T06:25:49;9.80;99.90
19928;DHT22;10126;50.876;4.470;2023-04-06T06:27:50;9.80;99.90
19928;DHT22;10126;50.876;4.470;2023-04-06T06:29:50;9.90;99.90
19928;DHT22;10126;50.876;4.470;2023-04-06T06:31:51;9.90;99.90
19928;DHT22;10126;50.876;4.470;2023-04-06T06:33:55;10.00;99.90
19928;DHT22;10126;50.876;4.470;2023-04-06T06:35:55;10.20;99.90
19928;DHT22;10126;50.876;4.470;2023-04-06T06:37:56;10.10;99.90
19928;DHT22;10126;50.876;4.470;2023-04-06T06:39:57;9.80;99.90
19928;DHT22;10126;50.876;4.470;2023-04-06T06:41:57;9.90;99.90
19928;DHT22;10126;50.876;4.470;2023-04-06T06:44:00;10.10;99.90
19928;DHT22;10126;50.876;4.470;2023-04-06T06:46:02;10.00;99.90
19928;DHT22;10126;50.876;4.470;2023-04-06T06:48:03;10.00;99.90
19928;DHT22;10126;50.876;4.470;2023-04-06T06:50:07;10.10;99.90
19928;DHT22;10126;50.876;4.470;2023-04-06T06:52:07;10.00;99.90
19928;DHT22;10126;50.876;4.470;2023-04-06T06:54:08;10.10;99.90
19928;DHT22;10126;50.876;4.470;2023-04-06T06:56:09;10.00;99.90
19928;DHT22;10126;50.876;4.470;2023-04-06T06:58:12;10.10;99.90
19928;DHT22;10126;50.876;4.470;2023-04-06T07:00:13;10.10;99.90
19928;DHT22;10126;50.876;4.470;2023-04-06T07:02:17;10.00;99.90
19928;DHT22;10126;50.876;4.470;2023-04-06T07:04:18;10.00;99.90
19928;DHT22;10126;50.876;4.470;2023-04-06T07:06:18;10.00;99.90
19928;DHT22;10126;50.876;4.470;2023-04-06T07:08:21;10.00;99.90
19928;DHT22;10126;50.876;4.470;2023-04-06T07:10:22;10.10;99.90
19928;DHT22;10126;50.876;4.470;2023-04-06T07:12:22;9.90;99.90
19928;DHT22;10126;50.876;4.470;2023-04-06T07:14:23;9.70;99.90
19928;DHT22;10126;50.876;4.470;2023-04-06T07:16:24;9.70;99.90
19928;DHT22;10126;50.876;4.470;2023-04-06T07:18:25;9.70;99.90
19928;DHT22;10126;50.876;4.470;2023-04-06T07:20:26;9.70;99.90
19928;DHT22;10126;50.876;4.470;2023-04-06T07:22:28;9.90;99.90
19928;DHT22;10126;50.876;4.470;2023-04-06T07:24:29;9.90;99.90
19928;DHT22;10126;50.876;4.470;2023-04-06T07:26:29;10.10;99.90
19928;DHT22;10126;50.876;4.470;2023-04-06T07:28:30;10.00;99.90
19928;DHT22;10126;50.876;4.470;2023-04-06T07:30:31;10.00;99.90
19928;DHT22;10126;50.876;4.470;2023-04-06T07:32:31;10.00;99.90
19928;DHT22;10126;50.876;4.470;2023-04-06T07:34:32;10.00;99.90
19928;DHT22;10126;50.876;4.470;2023-04-06T07:36:33;10.20;99.90
19928;DHT22;10126;50.876;4.470;2023-04-06T07:38:33;9.80;99.90
19928;DHT22;10126;50.876;4.470;2023-04-06T07:40:34;9.90;99.90
19928;DHT22;10126;50.876;4.470;2023-04-06T07:42:35;9.90;99.90
19928;DHT22;10126;50.876;4.470;2023-04-06T07:44:35;10.00;99.90
19928;DHT22;10126;50.876;4.470;2023-04-06T07:46:36;10.00;99.90
19928;DHT22;10126;50.876;4.470;2023-04-06T07:48:39;10.00;99.90
19928;DHT22;10126;50.876;4.470;2023-04-06T07:50:40;9.90;99.90
19928;DHT22;10126;50.876;4.470;2023-04-06T07:52:41;9.90;99.90
19928;DHT22;10126;50.876;4.470;2023-04-06T07:54:42;9.90;99.90
19928;DHT22;10126;50.876;4.470;2023-04-06T07:56:42;10.00;99.90
19928;DHT22;10126;50.876;4.470;2023-04-06T07:58:43;10.10;99.90
19928;DHT22;10126;50.876;4.470;2023-04-06T08:00:44;10.30;99.90
19928;DHT22;10126;50.876;4.470;2023-04-06T08:02:44;10.20;99.90
19928;DHT22;10126;50.876;4.470;2023-04-06T08:04:45;10.20;99.90
19928;DHT22;10126;50.876;4.470;2023-04-06T08:06:45;10.10;99.90
19928;DHT22;10126;50.876;4.470;2023-04-06T08:08:46;10.00;99.90
19928;DHT22;10126;50.876;4.470;2023-04-06T08:10:50;10.10;99.90
19928;DHT22;10126;50.876;4.470;2023-04-06T08:12:51;10.20;99.90
19928;DHT22;10126;50.876;4.470;2023-04-06T08:14:55;10.10;99.90
19928;DHT22;10126;50.876;4.470;2023-04-06T08:16:57;10.20;99.90
19928;DHT22;10126;50.876;4.470;2023-04-06T08:18:58;10.20;99.90
19928;DHT22;10126;50.876;4.470;2023-04-06T08:20:58;10.20;99.90
19928;DHT22;10126;50.876;4.470;2023-04-06T08:22:59;10.30;99.90
19928;DHT22;10126;50.876;4.470;2023-04-06T08:25:00;10.20;99.90
19928;DHT22;10126;50.876;4.470;2023-04-06T08:27:00;10.20;99.90
19928;DHT22;10126;50.876;4.470;2023-04-06T08:29:01;10.30;99.90
19928;DHT22;10126;50.876;4.470;2023-04-06T08:31:05;10.30;99.90
19928;DHT22;10126;50.876;4.470;2023-04-06T08:33:09;10.40;99.90
19928;DHT22;10126;50.876;4.470;2023-04-06T08:35:13;10.30;99.90
19928;DHT22;10126;50.876;4.470;2023-04-06T08:37:14;10.20;99.90
19928;DHT22;10126;50.876;4.470;2023-04-06T08:39:14;10.40;99.90
19928;DHT22;10126;50.876;4.470;2023-04-06T08:41:16;10.20;99.90
19928;DHT22;10126;50.876;4.470;2023-04-06T08:43:22;10.10;99.90
19928;DHT22;10126;50.876;4.470;2023-04-06T08:45:23;10.00;99.90
19928;DHT22;10126;50.876;4.470;2023-04-06T08:47:24;9.90;99.90
19928;DHT22;10126;50.876;4.470;2023-04-06T08:49:25;9.90;99.90
19928;DHT22;10126;50.876;4.470;2023-04-06T08:51:27;9.90;99.90
19928;DHT22;10126;50.876;4.470;2023-04-06T08:53:28;10.10;99.90
19928;DHT22;10126;50.876;4.470;2023-04-06T08:55:29;10.10;99.90
19928;DHT22;10126;50.876;4.470;2023-04-06T08:57:31;10.20;99.90
19928;DHT22;10126;50.876;4.470;2023-04-06T08:59:33;10.20;99.90
19928;DHT22;10126;50.876;4.470;2023-04-06T09:01:39;10.50;99.90
19928;DHT22;10126;50.876;4.470;2023-04-06T09:03:42;10.40;99.90
19928;DHT22;10126;50.876;4.470;2023-04-06T09:05:44;10.20;99.90
19928;DHT22;10126;50.876;4.470;2023-04-06T09:07:46;10.20;99.90
19928;DHT22;10126;50.876;4.470;2023-04-06T09:09:47;10.20;99.90
19928;DHT22;10126;50.876;4.470;2023-04-06T09:11:49;10.20;99.90
19928;DHT22;10126;50.876;4.470;2023-04-06T09:13:52;10.30;99.90
19928;DHT22;10126;50.876;4.470;2023-04-06T09:16:04;10.30;99.90
19928;DHT22;10126;50.876;4.470;2023-04-06T09:18:04;10.40;99.90
19928;DHT22;10126;50.876;4.470;2023-04-06T09:20:06;10.40;99.90
19928;DHT22;10126;50.876;4.470;2023-04-06T09:22:07;10.40;99.90
19928;DHT22;10126;50.876;4.470;2023-04-06T09:24:08;10.20;99.90
19928;DHT22;10126;50.876;4.470;2023-04-06T09:26:15;10.20;99.90
19928;DHT22;10126;50.876;4.470;2023-04-06T09:28:15;10.30;99.90
19928;DHT22;10126;50.876;4.470;2023-04-06T09:30:16;10.40;99.90
19928;DHT22;10126;50.876;4.470;2023-04-06T09:32:18;10.60;99.90
19928;DHT22;10126;50.876;4.470;2023-04-06T09:34:22;10.80;99.90
19928;DHT22;10126;50.876;4.470;2023-04-06T09:36:34;11.00;99.90
19928;DHT22;10126;50.876;4.470;2023-04-06T09:38:55;11.10;99.90
19928;DHT22;10126;50.876;4.470;2023-04-06T09:40:56;10.90;99.90
19928;DHT22;10126;50.876;4.470;2023-04-06T09:42:56;11.00;99.90
19928;DHT22;10126;50.876;4.470;2023-04-06T09:44:59;10.90;99.90
19928;DHT22;10126;50.876;4.470;2023-04-06T09:47:00;10.70;99.90
19928;DHT22;10126;50.876;4.470;2023-04-06T09:49:04;10.70;99.90
19928;DHT22;10126;50.876;4.470;2023-04-06T09:51:07;10.60;99.90
19928;DHT22;10126;50.876;4.470;2023-04-06T09:53:09;10.60;99.90
19928;DHT22;10126;50.876;4.470;2023-04-06T09:55:15;10.40;99.90
19928;DHT22;10126;50.876;4.470;2023-04-06T09:57:27;10.40;99.90
19928;DHT22;10126;50.876;4.470;2023-04-06T09:59:31;10.20;99.90
19928;DHT22;10126;50.876;4.470;2023-04-06T10:01:37;10.10;99.90
19928;DHT22;10126;50.876;4.470;2023-04-06T10:06:21;10.10;99.90
19928;DHT22;10126;50.876;4.470;2023-04-06T10:08:24;10.00;99.90
19928;DHT22;10126;50.876;4.470;2023-04-06T10:10:28;10.00;99.90
19928;DHT22;10126;50.876;4.470;2023-04-06T10:12:30;10.10;99.90
19928;DHT22;10126;50.876;4.470;2023-04-06T10:14:34;10.00;99.90
19928;DHT22;10126;50.876;4.470;2023-04-06T10:16:38;9.90;99.90
19928;DHT22;10126;50.876;4.470;2023-04-06T10:18:39;10.20;99.90
19928;DHT22;10126;50.876;4.470;2023-04-06T10:20:51;10.30;99.90
19928;DHT22;10126;50.876;4.470;2023-04-06T10:23:01;10.40;99.90
19928;DHT22;10126;50.876;4.470;2023-04-06T10:25:05;10.30;99.90
19928;DHT22;10126;50.876;4.470;2023-04-06T10:27:06;10.40;99.90
19928;DHT22;10126;50.876;4.470;2023-04-06T10:29:09;10.50;99.90
19928;DHT22;10126;50.876;4.470;2023-04-06T10:31:10;10.10;99.90
19928;DHT22;10126;50.876;4.470;2023-04-06T10:33:20;10.20;99.90
19928;DHT22;10126;50.876;4.470;2023-04-06T10:35:21;10.10;99.90
19928;DHT22;10126;50.876;4.470;2023-04-06T10:37:21;10.20;99.90
19928;DHT22;10126;50.876;4.470;2023-04-06T10:39:25;10.30;99.90
19928;DHT22;10126;50.876;4.470;2023-04-06T10:41:53;10.40;99.90
19928;DHT22;10126;50.876;4.470;2023-04-06T10:43:57;10.50;99.90
19928;DHT22;10126;50.876;4.470;2023-04-06T10:46:00;10.60;99.90
19928;DHT22;10126;50.876;4.470;2023-04-06T10:48:01;10.70;99.90
19928;DHT22;10126;50.876;4.470;2023-04-06T10:50:15;10.70;99.90
19928;DHT22;10126;50.876;4.470;2023-04-06T10:52:16;10.80;99.90
19928;DHT22;10126;50.876;4.470;2023-04-06T10:54:17;10.80;99.90
19928;DHT22;10126;50.876;4.470;2023-04-06T10:56:22;10.80;99.90
19928;DHT22;10126;50.876;4.470;2023-04-06T10:58:27;10.80;99.90
19928;DHT22;10126;50.876;4.470;2023-04-06T11:00:27;10.70;99.90
19928;DHT22;10126;50.876;4.470;2023-04-06T11:02:28;10.70;99.90
19928;DHT22;10126;50.876;4.470;2023-04-06T11:04:29;10.80;99.90
19928;DHT22;10126;50.876;4.470;2023-04-06T11:06:30;10.60;99.90
19928;DHT22;10126;50.876;4.470;2023-04-06T11:08:33;10.70;99.90
19928;DHT22;10126;50.876;4.470;2023-04-06T11:10:34;10.70;99.90
19928;DHT22;10126;50.876;4.470;2023-04-06T11:12:35;10.90;99.90
19928;DHT22;10126;50.876;4.470;2023-04-06T11:14:36;11.10;99.90
19928;DHT22;10126;50.876;4.470;2023-04-06T11:16:37;11.00;99.90
19928;DHT22;10126;50.876;4.470;2023-04-06T11:18:37;10.90;99.90
19928;DHT22;10126;50.876;4.470;2023-04-06T11:20:38;11.10;99.90
19928;DHT22;10126;50.876;4.470;2023-04-06T11:22:51;11.30;99.90
19928;DHT22;10126;50.876;4.470;2023-04-06T11:24:52;11.30;99.90
19928;DHT22;10126;50.876;4.470;2023-04-06T11:26:58;11.20;99.90
19928;DHT22;10126;50.876;4.470;2023-04-06T11:28:58;11.40;99.90
19928;DHT22;10126;50.876;4.470;2023-04-06T11:30:59;11.20;99.90
19928;DHT22;10126;50.876;4.470;2023-04-06T11:33:01;11.00;99.90
19928;DHT22;10126;50.876;4.470;2023-04-06T11:35:02;11.10;99.90
19928;DHT22;10126;50.876;4.470;2023-04-06T11:37:11;11.40;99.90
19928;DHT22;10126;50.876;4.470;2023-04-06T11:39:13;11.60;99.90
19928;DHT22;10126;50.876;4.470;2023-04-06T11:41:14;11.30;99.90
19928;DHT22;10126;50.876;4.470;2023-04-06T11:43:14;11.10;99.90
19928;DHT22;10126;50.876;4.470;2023-04-06T11:45:15;10.80;99.90
19928;DHT22;10126;50.876;4.470;2023-04-06T11:47:16;10.90;99.90
19928;DHT22;10126;50.876;4.470;2023-04-06T11:49:17;11.10;99.90
19928;DHT22;10126;50.876;4.470;2023-04-06T11:51:22;11.10;99.90
19928;DHT22;10126;50.876;4.470;2023-04-06T11:53:24;11.20;99.90
19928;DHT22;10126;50.876;4.470;2023-04-06T11:55:25;11.30;99.90
19928;DHT22;10126;50.876;4.470;2023-04-06T11:57:25;11.30;99.90
19928;DHT22;10126;50.876;4.470;2023-04-06T11:59:27;11.30;99.90
19928;DHT22;10126;50.876;4.470;2023-04-06T12:01:27;11.30;99.90
19928;DHT22;10126;50.876;4.470;2023-04-06T12:03:28;11.40;99.90
19928;DHT22;10126;50.876;4.470;2023-04-06T12:05:29;11.40;99.90
19928;DHT22;10126;50.876;4.470;2023-04-06T12:07:30;11.50;99.90
19928;DHT22;10126;50.876;4.470;2023-04-06T12:09:31;11.50;99.90
19928;DHT22;10126;50.876;4.470;2023-04-06T12:11:31;11.70;99.90
19928;DHT22;10126;50.876;4.470;2023-04-06T12:13:32;11.60;99.90
19928;DHT22;10126;50.876;4.470;2023-04-06T12:15:33;11.50;99.90
19928;DHT22;10126;50.876;4.470;2023-04-06T12:17:33;11.70;99.90
19928;DHT22;10126;50.876;4.470;2023-04-06T12:19:34;11.80;99.90
19928;DHT22;10126;50.876;4.470;2023-04-06T12:21:38;11.90;99.90
19928;DHT22;10126;50.876;4.470;2023-04-06T12:23:39;12.00;99.90
19928;DHT22;10126;50.876;4.470;2023-04-06T12:25:40;12.10;99.90
19928;DHT22;10126;50.876;4.470;2023-04-06T12:27:41;11.90;99.90
19928;DHT22;10126;50.876;4.470;2023-04-06T12:29:42;11.90;99.90
19928;DHT22;10126;50.876;4.470;2023-04-06T12:31:42;11.70;99.90
19928;DHT22;10126;50.876;4.470;2023-04-06T12:33:49;11.90;99.90
19928;DHT22;10126;50.876;4.470;2023-04-06T12:35:50;12.00;99.90
19928;DHT22;10126;50.876;4.470;2023-04-06T12:37:50;12.20;99.90
19928;DHT22;10126;50.876;4.470;2023-04-06T12:39:52;11.90;99.90
19928;DHT22;10126;50.876;4.470;2023-04-06T12:41:53;11.60;99.90
19928;DHT22;10126;50.876;4.470;2023-04-06T12:43:54;11.30;99.90
19928;DHT22;10126;50.876;4.470;2023-04-06T12:45:54;11.20;99.90
19928;DHT22;10126;50.876;4.470;2023-04-06T12:47:56;11.40;99.90
19928;DHT22;10126;50.876;4.470;2023-04-06T12:49:57;11.40;99.90
19928;DHT22;10126;50.876;4.470;2023-04-06T12:51:57;11.50;99.90
19928;DHT22;10126;50.876;4.470;2023-04-06T12:53:58;11.70;99.90
19928;DHT22;10126;50.876;4.470;2023-04-06T12:55:59;11.80;99.90
19928;DHT22;10126;50.876;4.470;2023-04-06T12:58:00;12.00;99.90
19928;DHT22;10126;50.876;4.470;2023-04-06T13:00:01;11.80;99.90
19928;DHT22;10126;50.876;4.470;2023-04-06T13:02:03;11.60;99.90
19928;DHT22;10126;50.876;4.470;2023-04-06T13:04:04;11.30;99.90
19928;DHT22;10126;50.876;4.470;2023-04-06T13:06:05;11.30;99.90
19928;DHT22;10126;50.876;4.470;2023-04-06T13:08:05;11.10;99.90
19928;DHT22;10126;50.876;4.470;2023-04-06T13:10:06;10.80;99.90